sensor_id;sensor_type;location;lat;lon;timestamp;pressure;altitude;pressure_sealevel;temperature;humidity
28588;BME280;15787;49.662;10.162;2022-07-22T00:01:56;99438.97;;;18.57;99.99
28588;BME280;15787;49.662;10.162;2022-07-22T00:04:26;99450.78;;;18.56;98.36
28588;BME280;15787;49.662;10.162;2022-07-22T00:06:54;99446.34;;;18.55;98.34
28588;BME280;15787;49.662;10.162;2022-07-22T00:09:22;99443.97;;;18.62;98.49
28588;BME280;15787;49.662;10.162;2022-07-22T00:11:50;99446.84;;;18.53;98.33
28588;BME280;15787;49.662;10.162;2022-07-22T00:14:18;99445.38;;;18.67;98.43
28588;BME280;15787;49.662;10.162;2022-07-22T00:16:47;99441.94;;;18.63;98.33
28588;BME280;15787;49.662;10.162;2022-07-22T00:19:17;99438.97;;;18.39;98.78
28588;BME280;15787;49.662;10.162;2022-07-22T00:21:45;99445.28;;;18.52;98.82
28588;BME280;15787;49.662;10.162;2022-07-22T00:24:13;99443.69;;;18.42;99.21
28588;BME280;15787;49.662;10.162;2022-07-22T00:26:40;99441.06;;;18.29;99.87
28588;BME280;15787;49.662;10.162;2022-07-22T00:29:08;99448.88;;;18.44;99.10
28588;BME280;15787;49.662;10.162;2022-07-22T00:31:37;99440.41;;;18.25;100.00
28588;BME280;15787;49.662;10.162;2022-07-22T00:34:05;99442.75;;;18.36;99.30
28588;BME280;15787;49.662;10.162;2022-07-22T00:36:34;99438.53;;;18.31;99.90
28588;BME280;15787;49.662;10.162;2022-07-22T00:39:03;99440.88;;;18.42;99.73
28588;BME280;15787;49.662;10.162;2022-07-22T00:41:31;99434.47;;;18.33;99.40
28588;BME280;15787;49.662;10.162;2022-07-22T00:44:04;99436.50;;;18.23;99.89
28588;BME280;15787;49.662;10.162;2022-07-22T00:46:34;99437.16;;;18.09;100.00
28588;BME280;15787;49.662;10.162;2022-07-22T00:49:03;99431.19;;;18.07;100.00
28588;BME280;15787;49.662;10.162;2022-07-22T00:51:32;99433.56;;;17.99;100.00
28588;BME280;15787;49.662;10.162;2022-07-22T00:54:01;99435.75;;;17.77;100.00
28588;BME280;15787;49.662;10.162;2022-07-22T00:56:30;99438.91;;;17.79;100.00
28588;BME280;15787;49.662;10.162;2022-07-22T00:59:00;99435.44;;;17.93;100.00
28588;BME280;15787;49.662;10.162;2022-07-22T01:01:28;99430.59;;;17.66;100.00
28588;BME280;15787;49.662;10.162;2022-07-22T01:03:56;99426.66;;;17.64;100.00
28588;BME280;15787;49.662;10.162;2022-07-22T01:06:27;99429.00;;;17.65;100.00
28588;BME280;15787;49.662;10.162;2022-07-22T01:08:56;99431.50;;;17.54;100.00
28588;BME280;15787;49.662;10.162;2022-07-22T01:11:26;99428.81;;;17.51;100.00
28588;BME280;15787;49.662;10.162;2022-07-22T01:13:55;99424.59;;;17.55;100.00
28588;BME280;15787;49.662;10.162;2022-07-22T01:16:23;99420.84;;;17.86;100.00
28588;BME280;15787;49.662;10.162;2022-07-22T01:18:52;99427.44;;;17.92;100.00
28588;BME280;15787;49.662;10.162;2022-07-22T01:21:22;99426.94;;;17.57;100.00
28588;BME280;15787;49.662;10.162;2022-07-22T01:23:50;99424.59;;;17.64;100.00
28588;BME280;15787;49.662;10.162;2022-07-22T01:26:18;99424.16;;;17.66;100.00
28588;BME280;15787;49.662;10.162;2022-07-22T01:28:46;99419.91;;;17.52;100.00
28588;BME280;15787;49.662;10.162;2022-07-22T01:31:14;99426.97;;;17.66;100.00
28588;BME280;15787;49.662;10.162;2022-07-22T01:33:42;99423.38;;;17.65;100.00
28588;BME280;15787;49.662;10.162;2022-07-22T01:36:10;99427.28;;;17.68;100.00
28588;BME280;15787;49.662;10.162;2022-07-22T01:38:39;99420.06;;;17.76;100.00
28588;BME280;15787;49.662;10.162;2022-07-22T01:41:07;99425.88;;;17.73;100.00
28588;BME280;15787;49.662;10.162;2022-07-22T01:43:37;99425.22;;;17.59;100.00
28588;BME280;15787;49.662;10.162;2022-07-22T01:46:05;99431.00;;;17.47;100.00
28588;BME280;15787;49.662;10.162;2022-07-22T01:48:37;99430.06;;;17.50;100.00
28588;BME280;15787;49.662;10.162;2022-07-22T01:51:05;99431.75;;;17.29;100.00
28588;BME280;15787;49.662;10.162;2022-07-22T01:53:35;99427.38;;;17.37;100.00
28588;BME280;15787;49.662;10.162;2022-07-22T01:56:05;99427.34;;;17.19;100.00
28588;BME280;15787;49.662;10.162;2022-07-22T01:58:39;99438.78;;;17.16;100.00
28588;BME280;15787;49.662;10.162;2022-07-22T02:01:08;99431.06;;;16.98;100.00
28588;BME280;15787;49.662;10.162;2022-07-22T02:03:37;99431.09;;;17.16;100.00
28588;BME280;15787;49.662;10.162;2022-07-22T02:06:07;99439.72;;;17.22;100.00
28588;BME280;15787;49.662;10.162;2022-07-22T02:08:36;99436.81;;;17.43;100.00
28588;BME280;15787;49.662;10.162;2022-07-22T02:11:15;99443.22;;;17.35;100.00
28588;BME280;15787;49.662;10.162;2022-07-22T02:13:57;99436.09;;;17.03;100.00
28588;BME280;15787;49.662;10.162;2022-07-22T02:16:27;99435.00;;;17.00;100.00
28588;BME280;15787;49.662;10.162;2022-07-22T02:18:56;99425.13;;;17.14;100.00
28588;BME280;15787;49.662;10.162;2022-07-22T02:21:24;99433.88;;;16.98;100.00
28588;BME280;15787;49.662;10.162;2022-07-22T02:23:57;99419.91;;;16.85;100.00
28588;BME280;15787;49.662;10.162;2022-07-22T02:26:27;99417.91;;;17.04;100.00
28588;BME280;15787;49.662;10.162;2022-07-22T02:28:55;99425.84;;;16.87;100.00
28588;BME280;15787;49.662;10.162;2022-07-22T02:31:23;99422.16;;;16.69;100.00
28588;BME280;15787;49.662;10.162;2022-07-22T02:33:51;99423.69;;;17.00;100.00
28588;BME280;15787;49.662;10.162;2022-07-22T02:36:22;99427.47;;;17.06;100.00
28588;BME280;15787;49.662;10.162;2022-07-22T02:38:51;99422.59;;;16.98;100.00
28588;BME280;15787;49.662;10.162;2022-07-22T02:41:20;99424.44;;;16.83;100.00
28588;BME280;15787;49.662;10.162;2022-07-22T02:43:53;99429.16;;;16.95;100.00
28588;BME280;15787;49.662;10.162;2022-07-22T02:46:22;99433.34;;;16.81;100.00
28588;BME280;15787;49.662;10.162;2022-07-22T02:48:51;99428.66;;;16.87;100.00
28588;BME280;15787;49.662;10.162;2022-07-22T02:51:21;99433.41;;;16.99;100.00
28588;BME280;15787;49.662;10.162;2022-07-22T02:53:50;99427.28;;;16.92;100.00
28588;BME280;15787;49.662;10.162;2022-07-22T02:56:19;99431.81;;;16.98;100.00
28588;BME280;15787;49.662;10.162;2022-07-22T02:58:47;99433.94;;;16.76;100.00
28588;BME280;15787;49.662;10.162;2022-07-22T03:01:20;99427.69;;;16.81;100.00
28588;BME280;15787;49.662;10.162;2022-07-22T03:03:59;99429.22;;;16.73;100.00
28588;BME280;15787;49.662;10.162;2022-07-22T03:06:30;99427.50;;;16.76;100.00
28588;BME280;15787;49.662;10.162;2022-07-22T03:09:06;99426.19;;;16.59;100.00
28588;BME280;15787;49.662;10.162;2022-07-22T03:11:36;99433.81;;;16.80;100.00
28588;BME280;15787;49.662;10.162;2022-07-22T03:14:05;99427.50;;;16.76;100.00
28588;BME280;15787;49.662;10.162;2022-07-22T03:16:35;99430.34;;;16.76;100.00
28588;BME280;15787;49.662;10.162;2022-07-22T03:19:03;99423.44;;;16.68;100.00
28588;BME280;15787;49.662;10.162;2022-07-22T03:21:31;99418.72;;;16.43;100.00
28588;BME280;15787;49.662;10.162;2022-07-22T03:24:00;99428.16;;;16.49;100.00
28588;BME280;15787;49.662;10.162;2022-07-22T03:26:28;99428.53;;;16.29;100.00
28588;BME280;15787;49.662;10.162;2022-07-22T03:28:56;99421.91;;;16.23;100.00
28588;BME280;15787;49.662;10.162;2022-07-22T03:31:25;99427.84;;;16.47;100.00
28588;BME280;15787;49.662;10.162;2022-07-22T03:33:55;99431.97;;;16.55;100.00
28588;BME280;15787;49.662;10.162;2022-07-22T03:36:24;99432.03;;;16.64;100.00
28588;BME280;15787;49.662;10.162;2022-07-22T03:38:52;99431.28;;;16.51;100.00
28588;BME280;15787;49.662;10.162;2022-07-22T03:41:21;99438.00;;;16.44;100.00
28588;BME280;15787;49.662;10.162;2022-07-22T03:43:50;99433.66;;;16.22;100.00
28588;BME280;15787;49.662;10.162;2022-07-22T03:46:18;99434.31;;;16.35;100.00
28588;BME280;15787;49.662;10.162;2022-07-22T03:48:46;99431.25;;;16.42;100.00
28588;BME280;15787;49.662;10.162;2022-07-22T03:51:16;99437.28;;;16.31;100.00
28588;BME280;15787;49.662;10.162;2022-07-22T03:53:44;99437.28;;;16.53;100.00
28588;BME280;15787;49.662;10.162;2022-07-22T03:56:12;99436.03;;;16.54;100.00
28588;BME280;15787;49.662;10.162;2022-07-22T03:58:39;99435.19;;;16.44;100.00
28588;BME280;15787;49.662;10.162;2022-07-22T04:01:07;99430.84;;;16.53;100.00
28588;BME280;15787;49.662;10.162;2022-07-22T04:03:36;99438.00;;;16.44;100.00
28588;BME280;15787;49.662;10.162;2022-07-22T04:06:08;99439.03;;;16.38;100.00
28588;BME280;15787;49.662;10.162;2022-07-22T04:08:54;99435.66;;;16.21;100.00
28588;BME280;15787;49.662;10.162;2022-07-22T04:11:23;99439.72;;;16.20;100.00
28588;BME280;15787;49.662;10.162;2022-07-22T04:13:50;99435.78;;;16.39;100.00
28588;BME280;15787;49.662;10.162;2022-07-22T04:16:18;99433.28;;;16.41;100.00
28588;BME280;15787;49.662;10.162;2022-07-22T04:19:10;99425.84;;;16.26;100.00
28588;BME280;15787;49.662;10.162;2022-07-22T04:21:50;99425.88;;;16.35;100.00
28588;BME280;15787;49.662;10.162;2022-07-22T04:24:21;99434.88;;;15.99;100.00
28588;BME280;15787;49.662;10.162;2022-07-22T04:26:49;99432.06;;;16.21;100.00
28588;BME280;15787;49.662;10.162;2022-07-22T04:29:17;99431.47;;;16.26;100.00
28588;BME280;15787;49.662;10.162;2022-07-22T04:31:45;99434.31;;;16.35;100.00
28588;BME280;15787;49.662;10.162;2022-07-22T04:34:16;99441.81;;;16.29;100.00
28588;BME280;15787;49.662;10.162;2022-07-22T04:36:46;99441.06;;;16.07;100.00
28588;BME280;15787;49.662;10.162;2022-07-22T04:39:14;99446.06;;;16.33;100.00
28588;BME280;15787;49.662;10.162;2022-07-22T04:41:50;99440.41;;;16.55;100.00
28588;BME280;15787;49.662;10.162;2022-07-22T04:44:19;99436.53;;;16.62;100.00
28588;BME280;15787;49.662;10.162;2022-07-22T04:46:46;99439.13;;;16.47;100.00
28588;BME280;15787;49.662;10.162;2022-07-22T04:49:14;99438.06;;;16.54;100.00
28588;BME280;15787;49.662;10.162;2022-07-22T04:51:42;99434.19;;;16.38;100.00
28588;BME280;15787;49.662;10.162;2022-07-22T04:54:17;99435.47;;;16.68;100.00
28588;BME280;15787;49.662;10.162;2022-07-22T04:56:53;99437.88;;;16.79;100.00
28588;BME280;15787;49.662;10.162;2022-07-22T04:59:21;99442.59;;;16.82;100.00
28588;BME280;15787;49.662;10.162;2022-07-22T05:01:50;99446.03;;;16.86;100.00
28588;BME280;15787;49.662;10.162;2022-07-22T05:04:18;99443.44;;;17.00;100.00
28588;BME280;15787;49.662;10.162;2022-07-22T05:06:46;99439.72;;;17.13;100.00
28588;BME280;15787;49.662;10.162;2022-07-22T05:09:14;99439.38;;;17.01;100.00
28588;BME280;15787;49.662;10.162;2022-07-22T05:11:42;99450.53;;;17.14;100.00
28588;BME280;15787;49.662;10.162;2022-07-22T05:14:12;99448.19;;;17.22;100.00
28588;BME280;15787;49.662;10.162;2022-07-22T05:16:40;99444.31;;;17.28;100.00
28588;BME280;15787;49.662;10.162;2022-07-22T05:19:08;99444.94;;;17.32;100.00
28588;BME280;15787;49.662;10.162;2022-07-22T05:21:37;99447.75;;;17.23;100.00
28588;BME280;15787;49.662;10.162;2022-07-22T05:24:06;99446.03;;;17.35;100.00
28588;BME280;15787;49.662;10.162;2022-07-22T05:26:34;99439.94;;;17.45;100.00
28588;BME280;15787;49.662;10.162;2022-07-22T05:29:02;99440.31;;;17.56;100.00
28588;BME280;15787;49.662;10.162;2022-07-22T05:31:31;99444.69;;;17.57;100.00
28588;BME280;15787;49.662;10.162;2022-07-22T05:33:59;99438.09;;;17.51;100.00
28588;BME280;15787;49.662;10.162;2022-07-22T05:36:34;99445.16;;;17.56;100.00
28588;BME280;15787;49.662;10.162;2022-07-22T05:39:02;99445.66;;;17.63;100.00
28588;BME280;15787;49.662;10.162;2022-07-22T05:41:30;99443.13;;;17.75;100.00
28588;BME280;15787;49.662;10.162;2022-07-22T05:43:58;99449.72;;;18.08;100.00
28588;BME280;15787;49.662;10.162;2022-07-22T05:46:26;99458.19;;;18.08;100.00
28588;BME280;15787;49.662;10.162;2022-07-22T05:48:55;99450.81;;;18.10;100.00
28588;BME280;15787;49.662;10.162;2022-07-22T05:51:26;99456.59;;;18.16;100.00
28588;BME280;15787;49.662;10.162;2022-07-22T05:53:53;99447.81;;;18.32;100.00
28588;BME280;15787;49.662;10.162;2022-07-22T05:56:22;99453.75;;;18.43;100.00
28588;BME280;15787;49.662;10.162;2022-07-22T05:58:50;99461.44;;;18.61;100.00
28588;BME280;15787;49.662;10.162;2022-07-22T06:01:18;99458.63;;;18.61;100.00
28588;BME280;15787;49.662;10.162;2022-07-22T06:03:46;99461.69;;;18.72;100.00
28588;BME280;15787;49.662;10.162;2022-07-22T06:06:16;99461.84;;;18.77;100.00
28588;BME280;15787;49.662;10.162;2022-07-22T06:08:46;99464.53;;;18.72;100.00
28588;BME280;15787;49.662;10.162;2022-07-22T06:11:19;99462.72;;;18.92;100.00
28588;BME280;15787;49.662;10.162;2022-07-22T06:13:47;99466.81;;;18.91;100.00
28588;BME280;15787;49.662;10.162;2022-07-22T06:16:15;99465.09;;;18.94;100.00
28588;BME280;15787;49.662;10.162;2022-07-22T06:18:45;99469.25;;;19.08;100.00
28588;BME280;15787;49.662;10.162;2022-07-22T06:21:13;99473.75;;;19.23;99.23
28588;BME280;15787;49.662;10.162;2022-07-22T06:23:42;99467.84;;;19.36;98.86
28588;BME280;15787;49.662;10.162;2022-07-22T06:26:10;99473.19;;;19.43;98.65
28588;BME280;15787;49.662;10.162;2022-07-22T06:28:38;99470.44;;;19.58;98.33
28588;BME280;15787;49.662;10.162;2022-07-22T06:31:07;99477.91;;;19.46;97.90
28588;BME280;15787;49.662;10.162;2022-07-22T06:33:35;99478.06;;;19.66;97.97
28588;BME280;15787;49.662;10.162;2022-07-22T06:36:05;99477.72;;;19.73;95.87
28588;BME280;15787;49.662;10.162;2022-07-22T06:38:35;99475.44;;;19.39;97.07
28588;BME280;15787;49.662;10.162;2022-07-22T06:41:20;99476.56;;;19.56;97.64
28588;BME280;15787;49.662;10.162;2022-07-22T06:44:04;99479.63;;;19.91;96.20
28588;BME280;15787;49.662;10.162;2022-07-22T06:46:52;99481.72;;;20.05;94.22
28588;BME280;15787;49.662;10.162;2022-07-22T06:49:22;99484.72;;;20.01;94.16
28588;BME280;15787;49.662;10.162;2022-07-22T06:51:51;99479.97;;;20.07;94.23
28588;BME280;15787;49.662;10.162;2022-07-22T06:54:19;99474.28;;;20.31;93.42
28588;BME280;15787;49.662;10.162;2022-07-22T06:56:51;99482.41;;;20.53;91.98
28588;BME280;15787;49.662;10.162;2022-07-22T06:59:25;99479.97;;;20.60;90.59
28588;BME280;15787;49.662;10.162;2022-07-22T07:01:53;99471.06;;;20.82;90.49
28588;BME280;15787;49.662;10.162;2022-07-22T07:04:22;99469.44;;;20.96;89.34
28588;BME280;15787;49.662;10.162;2022-07-22T07:06:50;99462.00;;;21.13;88.75
28588;BME280;15787;49.662;10.162;2022-07-22T07:09:41;99455.34;;;21.16;88.11
28588;BME280;15787;49.662;10.162;2022-07-22T07:12:17;99457.91;;;21.14;89.23
28588;BME280;15787;49.662;10.162;2022-07-22T07:15:11;99455.19;;;21.39;88.35
28588;BME280;15787;49.662;10.162;2022-07-22T07:18:02;99451.00;;;21.75;87.54
28588;BME280;15787;49.662;10.162;2022-07-22T07:20:30;99449.03;;;21.81;85.64
28588;BME280;15787;49.662;10.162;2022-07-22T07:23:00;99443.31;;;21.61;85.80
28588;BME280;15787;49.662;10.162;2022-07-22T07:25:30;99453.28;;;22.12;84.76
28588;BME280;15787;49.662;10.162;2022-07-22T07:28:00;99447.34;;;22.15;82.49
28588;BME280;15787;49.662;10.162;2022-07-22T07:30:51;99453.94;;;22.01;81.76
28588;BME280;15787;49.662;10.162;2022-07-22T07:33:20;99444.91;;;22.02;82.36
28588;BME280;15787;49.662;10.162;2022-07-22T07:35:49;99446.59;;;22.40;83.11
28588;BME280;15787;49.662;10.162;2022-07-22T07:38:24;99444.13;;;22.53;81.56
28588;BME280;15787;49.662;10.162;2022-07-22T07:40:53;99446.88;;;22.68;79.69
28588;BME280;15787;49.662;10.162;2022-07-22T07:43:22;99440.91;;;22.97;78.45
28588;BME280;15787;49.662;10.162;2022-07-22T07:45:50;99451.13;;;23.15;76.86
28588;BME280;15787;49.662;10.162;2022-07-22T07:48:18;99442.97;;;22.97;79.03
28588;BME280;15787;49.662;10.162;2022-07-22T07:50:46;99435.13;;;23.23;78.16
28588;BME280;15787;49.662;10.162;2022-07-22T07:53:14;99434.56;;;23.13;76.66
28588;BME280;15787;49.662;10.162;2022-07-22T07:55:45;99435.81;;;23.44;77.05
28588;BME280;15787;49.662;10.162;2022-07-22T07:58:13;99441.19;;;23.95;74.42
28588;BME280;15787;49.662;10.162;2022-07-22T08:00:43;99433.25;;;23.51;75.03
28588;BME280;15787;49.662;10.162;2022-07-22T08:03:12;99432.69;;;24.06;75.83
28588;BME280;15787;49.662;10.162;2022-07-22T08:05:40;99436.41;;;24.18;73.37
28588;BME280;15787;49.662;10.162;2022-07-22T08:08:16;99431.97;;;23.58;74.47
28588;BME280;15787;49.662;10.162;2022-07-22T08:10:45;99427.84;;;24.18;74.30
28588;BME280;15787;49.662;10.162;2022-07-22T08:13:31;99438.97;;;24.16;73.47
28588;BME280;15787;49.662;10.162;2022-07-22T08:16:00;99427.84;;;24.29;73.85
28588;BME280;15787;49.662;10.162;2022-07-22T08:18:31;99422.44;;;24.53;73.25
28588;BME280;15787;49.662;10.162;2022-07-22T08:20:59;99424.50;;;24.69;71.85
28588;BME280;15787;49.662;10.162;2022-07-22T08:23:36;99419.34;;;24.84;73.31
28588;BME280;15787;49.662;10.162;2022-07-22T08:26:04;99424.47;;;25.36;70.84
28588;BME280;15787;49.662;10.162;2022-07-22T08:28:32;99410.47;;;25.32;70.91
28588;BME280;15787;49.662;10.162;2022-07-22T08:31:01;99417.22;;;25.35;70.99
28588;BME280;15787;49.662;10.162;2022-07-22T08:33:32;99413.19;;;25.71;68.10
28588;BME280;15787;49.662;10.162;2022-07-22T08:36:01;99420.34;;;24.65;71.77
28588;BME280;15787;49.662;10.162;2022-07-22T08:38:30;99414.13;;;25.05;71.42
28588;BME280;15787;49.662;10.162;2022-07-22T08:40:58;99414.34;;;25.35;70.10
28588;BME280;15787;49.662;10.162;2022-07-22T08:43:34;99405.41;;;26.23;68.64
28588;BME280;15787;49.662;10.162;2022-07-22T08:46:05;99406.38;;;25.85;69.25
28588;BME280;15787;49.662;10.162;2022-07-22T08:48:47;99409.81;;;26.24;67.64
28588;BME280;15787;49.662;10.162;2022-07-22T08:51:34;99407.66;;;26.77;66.23
28588;BME280;15787;49.662;10.162;2022-07-22T08:54:19;99401.53;;;26.21;68.01
28588;BME280;15787;49.662;10.162;2022-07-22T08:56:47;99397.66;;;26.54;67.06
28588;BME280;15787;49.662;10.162;2022-07-22T08:59:15;99403.41;;;26.07;67.40
28588;BME280;15787;49.662;10.162;2022-07-22T09:02:03;99390.56;;;26.90;67.47
28588;BME280;15787;49.662;10.162;2022-07-22T09:04:50;99391.34;;;27.44;64.59
28588;BME280;15787;49.662;10.162;2022-07-22T09:07:26;99397.75;;;26.72;65.25
28588;BME280;15787;49.662;10.162;2022-07-22T09:09:58;99382.22;;;27.65;64.40
28588;BME280;15787;49.662;10.162;2022-07-22T09:12:53;99379.28;;;27.70;63.32
28588;BME280;15787;49.662;10.162;2022-07-22T09:15:46;99385.97;;;27.97;61.82
28588;BME280;15787;49.662;10.162;2022-07-22T09:18:46;99387.03;;;27.56;63.24
28588;BME280;15787;49.662;10.162;2022-07-22T09:21:23;99386.63;;;27.47;62.88
28588;BME280;15787;49.662;10.162;2022-07-22T09:24:31;99388.63;;;28.32;61.39
28588;BME280;15787;49.662;10.162;2022-07-22T09:27:22;99387.06;;;27.75;62.40
28588;BME280;15787;49.662;10.162;2022-07-22T09:30:29;99390.53;;;27.68;61.13
28588;BME280;15787;49.662;10.162;2022-07-22T09:33:09;99385.50;;;27.93;61.35
28588;BME280;15787;49.662;10.162;2022-07-22T09:35:43;99385.00;;;27.51;61.97
28588;BME280;15787;49.662;10.162;2022-07-22T09:38:26;99384.34;;;28.20;60.79
28588;BME280;15787;49.662;10.162;2022-07-22T09:40:55;99380.84;;;28.46;59.79
28588;BME280;15787;49.662;10.162;2022-07-22T09:43:23;99378.38;;;29.00;60.59
28588;BME280;15787;49.662;10.162;2022-07-22T09:45:57;99383.03;;;29.03;58.45
28588;BME280;15787;49.662;10.162;2022-07-22T09:48:45;99375.44;;;29.32;59.40
28588;BME280;15787;49.662;10.162;2022-07-22T09:51:34;99370.53;;;28.37;60.31
28588;BME280;15787;49.662;10.162;2022-07-22T09:54:22;99364.88;;;28.95;59.19
28588;BME280;15787;49.662;10.162;2022-07-22T09:56:50;99365.03;;;29.42;58.97
28588;BME280;15787;49.662;10.162;2022-07-22T09:59:18;99365.44;;;29.85;57.17
28588;BME280;15787;49.662;10.162;2022-07-22T10:02:01;99360.16;;;29.37;58.03
28588;BME280;15787;49.662;10.162;2022-07-22T10:04:33;99359.25;;;29.16;58.33
28588;BME280;15787;49.662;10.162;2022-07-22T10:07:07;99349.38;;;30.24;57.11
28588;BME280;15787;49.662;10.162;2022-07-22T10:09:38;99349.97;;;29.62;57.12
28588;BME280;15787;49.662;10.162;2022-07-22T10:12:08;99343.56;;;30.16;56.39
28588;BME280;15787;49.662;10.162;2022-07-22T10:14:38;99341.25;;;31.18;54.49
28588;BME280;15787;49.662;10.162;2022-07-22T10:17:06;99343.75;;;30.52;55.00
28588;BME280;15787;49.662;10.162;2022-07-22T10:19:34;99330.56;;;30.23;56.65
28588;BME280;15787;49.662;10.162;2022-07-22T10:22:03;99331.31;;;30.36;54.25
28588;BME280;15787;49.662;10.162;2022-07-22T10:24:32;99326.78;;;30.90;54.63
28588;BME280;15787;49.662;10.162;2022-07-22T10:27:01;99329.19;;;30.03;54.90
28588;BME280;15787;49.662;10.162;2022-07-22T10:29:32;99323.66;;;30.39;54.15
28588;BME280;15787;49.662;10.162;2022-07-22T10:32:32;99320.03;;;30.87;53.36
28588;BME280;15787;49.662;10.162;2022-07-22T10:35:21;99322.22;;;30.32;53.49
28588;BME280;15787;49.662;10.162;2022-07-22T10:38:03;99325.81;;;30.25;52.80
28588;BME280;15787;49.662;10.162;2022-07-22T10:40:50;99318.66;;;30.60;52.82
28588;BME280;15787;49.662;10.162;2022-07-22T10:43:19;99316.22;;;30.43;54.65
28588;BME280;15787;49.662;10.162;2022-07-22T10:45:50;99309.50;;;30.69;52.40
28588;BME280;15787;49.662;10.162;2022-07-22T10:48:20;99308.63;;;31.31;52.25
28588;BME280;15787;49.662;10.162;2022-07-22T10:50:54;99303.41;;;31.57;52.22
28588;BME280;15787;49.662;10.162;2022-07-22T10:53:39;99306.44;;;31.95;51.65
28588;BME280;15787;49.662;10.162;2022-07-22T10:56:16;99299.59;;;32.13;50.87
28588;BME280;15787;49.662;10.162;2022-07-22T10:58:49;99293.66;;;31.04;52.41
28588;BME280;15787;49.662;10.162;2022-07-22T11:01:21;99284.31;;;31.98;51.62
28588;BME280;15787;49.662;10.162;2022-07-22T11:03:49;99286.47;;;32.05;50.28
28588;BME280;15787;49.662;10.162;2022-07-22T11:06:21;99286.09;;;32.08;50.68
28588;BME280;15787;49.662;10.162;2022-07-22T11:08:51;99281.22;;;30.88;52.27
28588;BME280;15787;49.662;10.162;2022-07-22T11:11:31;99278.78;;;32.15;50.83
28588;BME280;15787;49.662;10.162;2022-07-22T11:14:00;99278.81;;;33.13;49.28
28588;BME280;15787;49.662;10.162;2022-07-22T11:16:29;99280.22;;;32.59;50.82
28588;BME280;15787;49.662;10.162;2022-07-22T11:18:59;99280.81;;;31.92;50.52
28588;BME280;15787;49.662;10.162;2022-07-22T11:21:29;99277.53;;;31.87;50.67
28588;BME280;15787;49.662;10.162;2022-07-22T11:24:00;99277.06;;;32.34;49.57
28588;BME280;15787;49.662;10.162;2022-07-22T11:26:35;99273.69;;;31.42;50.65
28588;BME280;15787;49.662;10.162;2022-07-22T11:29:03;99258.38;;;33.11;47.67
28588;BME280;15787;49.662;10.162;2022-07-22T11:31:32;99259.31;;;33.14;48.66
28588;BME280;15787;49.662;10.162;2022-07-22T11:34:07;99264.78;;;32.72;48.34
28588;BME280;15787;49.662;10.162;2022-07-22T11:36:37;99261.81;;;33.25;47.04
28588;BME280;15787;49.662;10.162;2022-07-22T11:39:06;99258.84;;;33.40;48.25
28588;BME280;15787;49.662;10.162;2022-07-22T11:41:36;99244.53;;;33.97;47.58
28588;BME280;15787;49.662;10.162;2022-07-22T11:44:04;99243.78;;;33.89;47.86
28588;BME280;15787;49.662;10.162;2022-07-22T11:46:37;99252.63;;;32.58;48.07
28588;BME280;15787;49.662;10.162;2022-07-22T11:49:06;99246.78;;;32.96;47.28
28588;BME280;15787;49.662;10.162;2022-07-22T11:51:37;99235.47;;;33.53;46.36
28588;BME280;15787;49.662;10.162;2022-07-22T11:54:05;99233.13;;;33.04;47.05
28588;BME280;15787;49.662;10.162;2022-07-22T11:56:35;99232.13;;;33.17;47.63
28588;BME280;15787;49.662;10.162;2022-07-22T11:59:04;99215.16;;;34.25;46.47
28588;BME280;15787;49.662;10.162;2022-07-22T12:01:34;99213.69;;;33.84;46.50
28588;BME280;15787;49.662;10.162;2022-07-22T12:04:03;99213.69;;;32.74;47.19
28588;BME280;15787;49.662;10.162;2022-07-22T12:06:32;99206.13;;;33.49;46.31
28588;BME280;15787;49.662;10.162;2022-07-22T12:09:04;99203.34;;;34.06;45.93
28588;BME280;15787;49.662;10.162;2022-07-22T12:11:38;99196.34;;;34.09;45.44
28588;BME280;15787;49.662;10.162;2022-07-22T12:14:07;99197.56;;;33.19;46.82
28588;BME280;15787;49.662;10.162;2022-07-22T12:16:42;99194.56;;;34.38;46.11
28588;BME280;15787;49.662;10.162;2022-07-22T12:19:12;99180.53;;;34.52;44.64
28588;BME280;15787;49.662;10.162;2022-07-22T12:21:53;99189.06;;;34.50;45.69
28588;BME280;15787;49.662;10.162;2022-07-22T12:24:27;99193.56;;;33.06;46.31
28588;BME280;15787;49.662;10.162;2022-07-22T12:26:58;99186.25;;;33.05;46.36
28588;BME280;15787;49.662;10.162;2022-07-22T12:29:27;99177.19;;;34.13;46.31
28588;BME280;15787;49.662;10.162;2022-07-22T12:31:57;99175.03;;;33.57;45.56
28588;BME280;15787;49.662;10.162;2022-07-22T12:34:34;99174.38;;;33.74;45.49
28588;BME280;15787;49.662;10.162;2022-07-22T12:37:16;99173.00;;;34.49;44.71
28588;BME280;15787;49.662;10.162;2022-07-22T12:39:58;99175.63;;;34.62;44.86
28588;BME280;15787;49.662;10.162;2022-07-22T12:42:29;99173.94;;;34.51;44.71
28588;BME280;15787;49.662;10.162;2022-07-22T12:45:03;99165.56;;;35.14;44.67
28588;BME280;15787;49.662;10.162;2022-07-22T12:47:43;99164.09;;;35.40;43.46
28588;BME280;15787;49.662;10.162;2022-07-22T12:50:19;99161.97;;;34.72;43.76
28588;BME280;15787;49.662;10.162;2022-07-22T12:52:49;99165.53;;;34.21;44.91
28588;BME280;15787;49.662;10.162;2022-07-22T12:55:39;99165.47;;;35.39;43.67
28588;BME280;15787;49.662;10.162;2022-07-22T12:58:09;99169.13;;;35.39;43.31
28588;BME280;15787;49.662;10.162;2022-07-22T13:00:39;99163.16;;;34.69;43.73
28588;BME280;15787;49.662;10.162;2022-07-22T13:03:07;99157.56;;;34.88;44.67
28588;BME280;15787;49.662;10.162;2022-07-22T13:05:35;99161.09;;;34.20;44.54
28588;BME280;15787;49.662;10.162;2022-07-22T13:08:04;99161.72;;;34.36;45.11
28588;BME280;15787;49.662;10.162;2022-07-22T13:10:36;99164.78;;;35.31;43.84